Maple Grove, Minnesota
Current Conditions -  °F | °C
As of 6:53 AM on Thursday 23 Oct 2014 (Local Time) from KMIC Reporting Station
Overcast Overcast  
Wind Chill: 54°   Ceiling: 900
Heat Index: 54°   Visibility: 10mi
Dew Point: 50°   Wind: 5mph
Humidity: 86%   Direction: 170°S
Pressure: 29.97"   Gusts: NA
Location:  45.1°N, 93.44°W
Report Text: KMIC 231153Z 17004KT 10SM OVC009 12/10 A2997 RMK AO2 SLP151 60003 70003 T01220100 10139 20117 56001
Loading
Personal Weather Stations






























Interactive Weather Map
Tropical Storm Tracking
New forecast layout! Learn more

10-Day Weather Forecast

Advertisements
Track Severe Weather on mobile